createdAt,value
2019-01-16T00:04:19.340Z,12.65
2019-01-16T00:09:39.653Z,12.33
2019-01-16T00:19:59.577Z,11.60
2019-01-16T00:25:20.716Z,10.88
2019-01-16T00:30:50.166Z,9.05
2019-01-16T00:36:05.727Z,10.60
2019-01-16T00:41:24.400Z,9.80
2019-01-16T00:46:35.328Z,8.47
2019-01-16T00:51:54.760Z,7.27
2019-01-16T00:57:04.292Z,6.65
2019-01-16T01:02:12.285Z,7.80
2019-01-16T01:07:25.467Z,9.87
2019-01-16T01:12:45.981Z,8.63
2019-01-16T01:18:16.025Z,3.90
2019-01-16T01:23:36.632Z,8.27
2019-01-16T01:28:43.528Z,8.20
2019-01-16T01:33:49.704Z,6.20
2019-01-16T01:38:58.537Z,6.47
2019-01-16T01:44:06.469Z,9.80
2019-01-16T01:54:28.442Z,4.37
2019-01-16T01:59:36.449Z,6.90
2019-01-16T02:10:08.054Z,7.78
2019-01-16T02:15:29.586Z,6.30
2019-01-16T02:20:40.385Z,6.15
2019-01-16T02:26:04.775Z,3.70
2019-01-16T02:31:12.700Z,5.45
2019-01-16T02:36:21.530Z,5.87
2019-01-16T02:41:29.448Z,5.20
2019-01-16T02:51:57.362Z,5.60
2019-01-16T02:57:05.334Z,3.40
2019-01-16T03:02:13.317Z,5.97
2019-01-16T03:12:32.055Z,3.10
2019-01-16T03:22:59.719Z,3.60
2019-01-16T03:28:07.418Z,3.72
2019-01-16T03:33:22.607Z,4.27
2019-01-16T03:38:36.667Z,2.40
2019-01-16T03:49:13.701Z,3.53
2019-01-16T03:54:21.408Z,2.20
2019-01-16T03:59:29.433Z,1.80
2019-01-16T04:04:37.753Z,2.17
2019-01-16T04:10:01.745Z,3.45
2019-01-16T04:15:25.844Z,3.15
2019-01-16T04:20:43.386Z,3.20
2019-01-16T04:31:01.064Z,2.93
2019-01-16T04:36:25.564Z,3.00
2019-01-16T04:41:39.624Z,2.40
2019-01-16T04:51:58.999Z,2.93
2019-01-16T04:57:07.372Z,2.23
2019-01-16T05:02:27.685Z,3.30
2019-01-16T05:12:53.449Z,2.97
2019-01-16T05:18:01.661Z,3.17
2019-01-16T05:28:15.551Z,2.87
2019-01-16T05:33:26.334Z,3.45
2019-01-16T05:43:49.317Z,3.10
2019-01-16T05:49:03.398Z,3.93
2019-01-16T05:54:14.083Z,4.30
2019-01-16T05:59:38.374Z,3.60
2019-01-16T06:04:58.382Z,4.10
2019-01-16T06:10:24.723Z,7.67
2019-01-16T06:15:30.802Z,4.07
2019-01-16T06:20:47.721Z,2.63
2019-01-16T06:31:35.715Z,2.50
2019-01-16T06:36:58.962Z,3.22
2019-01-16T06:42:09.674Z,3.40
2019-01-16T06:52:29.396Z,4.83
2019-01-16T06:57:52.985Z,2.98
2019-01-16T07:03:00.944Z,3.23
2019-01-16T07:13:16.730Z,2.60
2019-01-16T07:23:30.720Z,2.87
2019-01-16T07:28:45.796Z,2.70
2019-01-16T07:33:53.725Z,2.02
2019-01-16T07:39:17.614Z,2.25
2019-01-16T07:44:38.985Z,3.33
2019-01-16T07:49:55.997Z,1.60
2019-01-16T07:55:09.822Z,2.10
2019-01-16T08:00:17.643Z,2.50
2019-01-16T08:05:28.621Z,2.25
2019-01-16T08:10:53.051Z,2.37
2019-01-16T08:21:41.734Z,2.00
2019-01-16T08:26:53.741Z,2.85
2019-01-16T08:43:06.925Z,1.72
2019-01-16T08:48:19.068Z,2.37
2019-01-16T08:53:43.776Z,2.30
2019-01-16T08:58:51.794Z,2.73
2019-01-16T09:03:59.706Z,3.92
2019-01-16T09:09:14.393Z,3.73
2019-01-16T09:14:22.422Z,2.10
2019-01-16T09:19:30.602Z,1.20
2019-01-16T09:24:55.043Z,2.20
2019-01-16T09:30:05.975Z,1.33
2019-01-16T09:35:20.391Z,3.15
2019-01-16T09:40:44.686Z,3.10
2019-01-16T09:51:16.712Z,2.80
2019-01-16T10:01:33.427Z,2.53
2019-01-16T10:06:59.802Z,2.80
2019-01-16T10:12:08.991Z,1.67
2019-01-16T10:17:19.853Z,1.63
2019-01-16T10:22:30.517Z,2.40
2019-01-16T10:27:44.687Z,3.17
2019-01-16T10:38:00.310Z,3.07
2019-01-16T10:43:17.465Z,8.67
2019-01-16T10:48:34.490Z,3.27
2019-01-16T10:53:54.953Z,5.50
2019-01-16T10:59:19.491Z,2.83
2019-01-16T11:04:27.812Z,3.27
2019-01-16T11:09:53.936Z,4.20
2019-01-16T11:20:15.316Z,6.33
2019-01-16T11:25:23.335Z,4.63
2019-01-16T11:30:40.469Z,2.87
2019-01-16T11:36:07.276Z,5.00
2019-01-16T11:41:15.277Z,4.27
2019-01-16T11:52:06.031Z,4.95
2019-01-16T11:57:16.680Z,5.83
2019-01-16T12:07:35.383Z,6.90
2019-01-16T12:12:56.018Z,6.77
2019-01-16T12:18:13.037Z,3.80
2019-01-16T12:23:24.036Z,3.45
2019-01-16T12:28:47.699Z,5.37
2019-01-16T12:33:55.976Z,5.33
2019-01-16T12:39:16.438Z,12.73
2019-01-16T12:44:27.277Z,9.57
2019-01-16T12:49:47.330Z,15.63
2019-01-16T12:54:59.795Z,7.43
2019-01-16T13:00:20.996Z,7.85
2019-01-16T13:05:35.340Z,6.63
2019-01-16T13:10:59.747Z,6.80
2019-01-16T13:21:27.559Z,9.20
2019-01-16T13:32:11.273Z,10.37
2019-01-16T13:37:19.364Z,5.55
2019-01-16T13:42:25.633Z,7.67
2019-01-16T13:47:36.622Z,8.60
2019-01-16T13:57:50.326Z,12.73
2019-01-16T14:02:58.340Z,10.80
2019-01-16T14:08:18.734Z,12.40
2019-01-16T14:13:43.088Z,10.05
2019-01-16T14:18:51.055Z,8.13
2019-01-16T14:24:04.714Z,9.83
2019-01-16T14:29:12.809Z,14.23
2019-01-16T14:34:36.274Z,10.97
2019-01-16T14:39:45.362Z,14.43
2019-01-16T14:44:53.382Z,11.40
2019-01-16T14:50:08.563Z,12.80
2019-01-16T14:55:29.286Z,11.57
2019-01-16T15:00:52.664Z,13.57
2019-01-16T15:11:31.051Z,9.30
2019-01-16T15:16:39.845Z,15.37
2019-01-16T15:21:53.519Z,11.93
2019-01-16T15:27:04.399Z,13.00
2019-01-16T15:32:28.382Z,17.10
2019-01-16T15:37:48.685Z,17.30
2019-01-16T15:43:15.651Z,18.57
2019-01-16T15:48:39.400Z,22.70
2019-01-16T15:53:51.352Z,17.90
2019-01-16T15:59:02.291Z,22.23
2019-01-16T16:04:28.684Z,19.07
2019-01-16T16:14:45.347Z,36.10
2019-01-16T16:19:53.354Z,34.38
2019-01-16T16:25:03.987Z,30.90
2019-01-16T16:30:18.285Z,32.87
2019-01-16T16:35:38.407Z,37.93
2019-01-16T16:41:02.987Z,44.60
2019-01-16T16:46:17.279Z,33.37
2019-01-16T16:51:40.655Z,46.30
2019-01-16T17:07:18.444Z,40.90
2019-01-16T17:12:26.591Z,32.33
2019-01-16T17:17:51.059Z,41.63
2019-01-16T17:28:35.950Z,105.23
2019-01-16T17:33:43.971Z,42.50
2019-01-16T17:38:51.932Z,35.80
2019-01-16T17:44:16.414Z,53.77
2019-01-16T17:49:24.743Z,36.47
2019-01-16T17:54:32.667Z,33.70
2019-01-16T17:59:48.290Z,33.70
2019-01-16T18:05:02.420Z,30.80
2019-01-16T18:10:10.289Z,26.30
2019-01-16T18:15:18.357Z,25.57
2019-01-16T18:25:50.670Z,22.32
2019-01-16T18:36:09.291Z,32.63
2019-01-16T18:41:29.370Z,25.57
2019-01-16T18:46:40.471Z,29.60
2019-01-16T18:51:52.576Z,28.27
2019-01-16T18:57:18.726Z,22.57
2019-01-16T19:02:32.783Z,18.07
2019-01-16T19:07:54.329Z,26.30
2019-01-16T19:13:11.448Z,24.57
2019-01-16T19:18:20.507Z,26.42
2019-01-16T19:23:28.514Z,21.12
2019-01-16T19:28:42.677Z,37.63
2019-01-16T19:39:14.788Z,28.80
2019-01-16T19:44:42.002Z,21.93
2019-01-16T19:49:59.300Z,39.57
2019-01-16T19:55:09.995Z,13.37
2019-01-16T20:00:24.290Z,15.38
2019-01-16T20:05:41.723Z,14.27
2019-01-16T20:10:53.395Z,24.20
2019-01-16T20:16:01.398Z,16.77
2019-01-16T20:21:26.275Z,12.98
2019-01-16T20:26:32.388Z,13.47
2019-01-16T20:31:49.424Z,15.33
2019-01-16T20:37:09.726Z,11.67
2019-01-16T20:47:23.513Z,17.17
2019-01-16T20:52:47.508Z,11.27
2019-01-16T20:57:53.681Z,14.97
2019-01-16T21:03:20.550Z,15.67
2019-01-16T21:13:39.356Z,6.00
2019-01-16T21:18:49.981Z,6.00
2019-01-16T21:24:07.464Z,5.23
2019-01-16T21:29:15.698Z,4.87
2019-01-16T21:34:27.414Z,5.25
2019-01-16T21:39:44.911Z,8.38
2019-01-16T21:44:52.977Z,3.00
2019-01-16T21:50:18.700Z,3.55
2019-01-16T21:55:29.671Z,4.60
2019-01-16T22:05:55.933Z,5.73
2019-01-16T22:16:26.732Z,4.50
2019-01-16T22:21:51.278Z,4.05
2019-01-16T22:27:02.331Z,2.03
2019-01-16T22:32:19.667Z,4.37
2019-01-16T22:37:27.371Z,3.42
2019-01-16T22:42:50.706Z,3.52
2019-01-16T22:48:02.639Z,4.13
2019-01-16T22:53:13.654Z,3.72
2019-01-16T23:03:47.656Z,5.50
2019-01-16T23:14:15.443Z,4.78
2019-01-16T23:19:29.713Z,3.17
2019-01-16T23:24:37.405Z,5.65
2019-01-16T23:35:33.788Z,5.63
2019-01-16T23:40:59.338Z,3.02
2019-01-16T23:46:18.773Z,5.20
2019-01-16T23:51:33.078Z,4.63
